createdAt,value
2022-10-21T00:01:55.877Z,8.89
2022-10-21T00:03:58.373Z,8.89
2022-10-21T00:06:00.388Z,8.94
2022-10-21T00:08:02.700Z,8.96
2022-10-21T00:10:05.961Z,8.95
2022-10-21T00:12:08.276Z,8.94
2022-10-21T00:14:35.436Z,8.75
2022-10-21T00:16:37.962Z,8.90
2022-10-21T00:18:41.394Z,9.00
2022-10-21T00:20:43.489Z,8.95
2022-10-21T00:22:45.568Z,8.94
2022-10-21T00:24:48.109Z,8.84
2022-10-21T00:26:50.982Z,8.87
2022-10-21T00:28:59.309Z,8.82
2022-10-21T00:31:01.838Z,8.88
2022-10-21T00:33:04.051Z,8.88
2022-10-21T00:35:06.561Z,8.92
2022-10-21T00:37:12.029Z,8.88
2022-10-21T00:39:14.019Z,8.86
2022-10-21T00:41:19.987Z,8.78
2022-10-21T00:43:22.477Z,8.76
2022-10-21T00:45:29.651Z,8.70
2022-10-21T00:47:38.244Z,8.58
2022-10-21T00:49:46.425Z,8.47
2022-10-21T00:51:52.930Z,8.26
2022-10-21T00:53:55.115Z,8.25
2022-10-21T00:56:04.014Z,8.13
2022-10-21T00:58:08.764Z,7.99
2022-10-21T01:00:14.165Z,7.87
2022-10-21T01:02:16.762Z,7.80
2022-10-21T01:04:22.652Z,7.71
2022-10-21T01:06:26.438Z,7.79
2022-10-21T01:08:29.556Z,7.81
2022-10-21T01:10:31.971Z,7.92
2022-10-21T01:12:50.013Z,7.84
2022-10-21T01:14:58.406Z,7.79
2022-10-21T01:17:15.500Z,7.74
2022-10-21T01:19:36.308Z,7.73
2022-10-21T01:21:56.188Z,7.72
2022-10-21T01:26:05.930Z,7.83
2022-10-21T01:28:15.664Z,7.87
2022-10-21T01:30:19.474Z,7.76
2022-10-21T01:32:42.121Z,7.80
2022-10-21T01:34:56.332Z,7.72
2022-10-21T01:37:04.605Z,7.64
2022-10-21T01:39:31.017Z,7.78
2022-10-21T01:41:48.732Z,7.80
2022-10-21T01:44:14.398Z,7.88
2022-10-21T01:46:26.194Z,7.80
2022-10-21T01:48:34.009Z,7.83
2022-10-21T01:50:42.568Z,7.94
2022-10-21T01:52:49.977Z,7.88
2022-10-21T01:54:59.176Z,7.71
2022-10-21T02:00:50.900Z,7.81
2022-10-21T02:02:52.997Z,7.68
2022-10-21T02:04:56.371Z,7.66
2022-10-21T02:06:58.698Z,7.72
2022-10-21T02:09:00.965Z,7.81
2022-10-21T02:11:07.151Z,7.79
2022-10-21T02:13:10.999Z,7.81
2022-10-21T02:15:15.699Z,7.80
2022-10-21T02:17:20.241Z,7.79
2022-10-21T02:19:22.173Z,7.81
2022-10-21T02:21:28.370Z,7.77
2022-10-21T02:23:43.931Z,7.76
2022-10-21T02:25:50.749Z,7.81
2022-10-21T02:27:53.440Z,7.77
2022-10-21T02:34:06.349Z,7.58
2022-10-21T02:40:29.236Z,7.44
2022-10-21T02:42:40.167Z,7.51
2022-10-21T02:48:37.485Z,7.67
2022-10-21T02:50:39.719Z,7.50
2022-10-21T02:52:41.666Z,7.55
2022-10-21T02:54:43.454Z,7.51
2022-10-21T02:56:45.230Z,7.43
2022-10-21T02:58:47.090Z,7.42
2022-10-21T03:00:49.343Z,7.36
2022-10-21T03:02:51.178Z,7.48
2022-10-21T03:04:53.055Z,7.46
2022-10-21T03:06:55.137Z,7.50
2022-10-21T03:08:57.372Z,7.54
2022-10-21T03:10:59.566Z,7.64
2022-10-21T03:13:01.575Z,7.46
2022-10-21T03:15:04.061Z,7.39
2022-10-21T03:17:06.208Z,7.43
2022-10-21T03:23:08.146Z,7.27
2022-10-21T03:25:10.344Z,7.35
2022-10-21T03:27:12.252Z,7.41
2022-10-21T03:29:14.349Z,7.40
2022-10-21T03:31:16.365Z,7.49
2022-10-21T03:33:18.251Z,7.53
2022-10-21T03:35:20.080Z,7.59
2022-10-21T03:37:21.924Z,7.62
2022-10-21T03:39:23.854Z,7.62
2022-10-21T03:41:25.805Z,7.66
2022-10-21T03:43:27.625Z,7.63
2022-10-21T03:49:02.828Z,7.60
2022-10-21T03:51:08.754Z,7.60
2022-10-21T03:53:24.432Z,7.57
2022-10-21T03:55:32.545Z,7.45
2022-10-21T03:57:34.401Z,7.41
2022-10-21T03:59:36.273Z,7.44
2022-10-21T04:01:38.120Z,7.53
2022-10-21T04:03:41.296Z,7.50
2022-10-21T04:05:43.170Z,7.54
2022-10-21T04:07:49.290Z,7.53
2022-10-21T04:09:54.072Z,7.48
2022-10-21T04:11:56.118Z,7.48
2022-10-21T04:13:58.197Z,7.54
2022-10-21T04:16:02.896Z,7.47
2022-10-21T04:18:06.550Z,7.46
2022-10-21T04:20:09.759Z,7.39
2022-10-21T04:22:11.722Z,7.32
2022-10-21T04:24:13.843Z,7.36
2022-10-21T04:26:15.751Z,7.33
2022-10-21T04:28:17.606Z,7.27
2022-10-21T04:30:19.956Z,7.28
2022-10-21T04:32:21.667Z,7.32
2022-10-21T04:34:23.558Z,7.36
2022-10-21T04:36:25.525Z,7.21
2022-10-21T04:38:28.190Z,7.09
2022-10-21T04:40:30.442Z,7.01
2022-10-21T04:42:32.593Z,6.95
2022-10-21T04:44:34.481Z,7.01
2022-10-21T04:46:36.465Z,7.02
2022-10-21T04:48:38.364Z,7.11
2022-10-21T04:50:40.450Z,7.12
2022-10-21T04:52:42.351Z,7.05
2022-10-21T04:54:44.296Z,6.98
2022-10-21T04:56:46.216Z,6.93
2022-10-21T04:58:48.299Z,6.95
2022-10-21T05:04:45.048Z,6.62
2022-10-21T05:06:46.997Z,6.54
2022-10-21T05:08:48.908Z,6.42
2022-10-21T05:10:58.368Z,6.48
2022-10-21T05:13:00.645Z,6.42
2022-10-21T05:15:02.602Z,6.53
2022-10-21T05:17:04.607Z,6.57
2022-10-21T05:19:06.716Z,6.56
2022-10-21T05:21:08.876Z,6.58
2022-10-21T05:23:10.921Z,6.56
2022-10-21T05:25:15.253Z,6.61
2022-10-21T05:27:17.276Z,6.67
2022-10-21T05:29:44.469Z,6.64
2022-10-21T05:31:46.290Z,6.76
2022-10-21T05:33:48.225Z,6.84
2022-10-21T05:36:05.121Z,6.86
2022-10-21T05:38:07.060Z,7.05
2022-10-21T05:40:09.353Z,7.18
2022-10-21T05:42:11.350Z,7.33
2022-10-21T05:44:13.372Z,7.50
2022-10-21T05:46:15.327Z,7.67
2022-10-21T05:48:20.542Z,7.81
2022-10-21T05:50:25.085Z,7.96
2022-10-21T05:52:26.953Z,8.06
2022-10-21T05:54:28.816Z,8.21
2022-10-21T05:56:31.345Z,8.37
2022-10-21T05:58:35.021Z,8.46
2022-10-21T06:00:36.939Z,8.56
2022-10-21T06:02:39.165Z,8.66
2022-10-21T06:04:41.279Z,8.72
2022-10-21T06:06:43.305Z,8.86
2022-10-21T06:08:45.267Z,8.99
2022-10-21T06:10:47.400Z,9.12
2022-10-21T06:12:49.327Z,9.29
2022-10-21T06:14:51.333Z,9.40
2022-10-21T06:16:53.324Z,9.48
2022-10-21T06:18:57.910Z,9.54
2022-10-21T06:21:00.098Z,9.68
2022-10-21T06:23:02.096Z,9.69
2022-10-21T06:25:04.245Z,9.83
2022-10-21T06:27:06.987Z,9.93
2022-10-21T06:29:08.929Z,10.04
2022-10-21T06:31:16.588Z,10.13
2022-10-21T06:33:22.109Z,10.27
2022-10-21T06:35:26.687Z,10.29
2022-10-21T06:37:28.433Z,10.49
2022-10-21T06:39:30.667Z,10.57
2022-10-21T06:41:32.557Z,10.63
2022-10-21T06:43:35.310Z,10.67
2022-10-21T06:45:37.801Z,10.77
2022-10-21T06:47:40.195Z,10.77
2022-10-21T06:49:42.440Z,10.78
2022-10-21T06:51:44.371Z,10.89
2022-10-21T06:53:47.206Z,10.87
2022-10-21T06:55:49.064Z,10.86
2022-10-21T06:57:51.430Z,10.99
2022-10-21T06:59:53.379Z,11.15
2022-10-21T07:02:00.044Z,11.16
2022-10-21T07:04:04.448Z,11.33
2022-10-21T07:06:07.001Z,11.40
2022-10-21T07:08:11.907Z,11.53
2022-10-21T07:10:14.862Z,11.61
2022-10-21T07:12:17.166Z,11.55
2022-10-21T07:14:19.189Z,11.42
2022-10-21T07:16:27.747Z,11.60
2022-10-21T07:18:30.893Z,11.65
2022-10-21T07:20:34.479Z,11.67
2022-10-21T07:22:36.439Z,11.82
2022-10-21T07:24:38.343Z,11.82
2022-10-21T07:26:41.179Z,11.87
2022-10-21T07:28:47.086Z,11.87
2022-10-21T07:30:49.292Z,12.04
2022-10-21T07:32:51.692Z,12.24
2022-10-21T07:34:53.607Z,12.37
2022-10-21T07:36:55.490Z,12.53
2022-10-21T07:39:03.850Z,12.56
2022-10-21T07:41:06.177Z,12.73
2022-10-21T07:43:09.172Z,12.76
2022-10-21T07:45:12.879Z,12.84
2022-10-21T07:47:14.745Z,12.95
2022-10-21T07:49:18.950Z,13.11
2022-10-21T07:51:28.362Z,13.28
2022-10-21T07:53:32.324Z,13.42
2022-10-21T07:55:36.552Z,13.53
2022-10-21T07:57:38.793Z,13.61
2022-10-21T07:59:40.897Z,13.69
2022-10-21T08:03:55.967Z,13.81
2022-10-21T08:05:58.132Z,13.93
2022-10-21T08:08:00.372Z,13.96
2022-10-21T08:10:02.821Z,13.88
2022-10-21T08:12:04.723Z,13.89
2022-10-21T08:14:08.506Z,13.89
2022-10-21T08:16:10.430Z,13.99
2022-10-21T08:18:12.438Z,13.97
2022-10-21T08:20:14.358Z,14.05
2022-10-21T08:22:16.199Z,14.20
2022-10-21T08:24:18.119Z,14.25
2022-10-21T08:26:20.141Z,14.37
2022-10-21T08:28:24.536Z,14.47
2022-10-21T08:30:32.284Z,14.53
2022-10-21T08:32:34.282Z,14.62
2022-10-21T08:34:36.313Z,14.68
2022-10-21T08:36:39.125Z,14.77
2022-10-21T08:42:42.667Z,14.96
2022-10-21T08:44:46.602Z,14.99
2022-10-21T08:47:05.757Z,15.10
2022-10-21T08:49:16.529Z,15.24
2022-10-21T08:51:32.209Z,15.38
2022-10-21T08:53:45.366Z,15.49
2022-10-21T08:55:48.312Z,15.63
2022-10-21T08:57:53.941Z,15.67
2022-10-21T08:59:59.209Z,15.76
2022-10-21T09:02:25.071Z,15.82
2022-10-21T09:05:12.078Z,15.90
2022-10-21T09:07:28.413Z,15.98
2022-10-21T09:09:52.415Z,16.07
2022-10-21T09:12:14.374Z,16.13
2022-10-21T09:14:44.077Z,16.17
2022-10-21T09:16:54.533Z,16.22
2022-10-21T09:19:34.287Z,16.28
2022-10-21T09:21:45.527Z,16.38
2022-10-21T09:23:57.248Z,16.44
2022-10-21T09:26:06.368Z,16.49
2022-10-21T09:28:14.311Z,16.54
2022-10-21T09:30:24.548Z,16.61
2022-10-21T09:32:32.668Z,16.72
2022-10-21T09:34:58.094Z,16.77
2022-10-21T09:37:02.843Z,16.87
2022-10-21T09:39:22.186Z,16.91
2022-10-21T09:41:30.433Z,17.01
2022-10-21T09:43:33.275Z,17.08
2022-10-21T09:45:44.364Z,17.15
2022-10-21T09:47:52.100Z,17.25
2022-10-21T09:50:09.817Z,17.26
2022-10-21T09:52:12.349Z,17.29
2022-10-21T09:54:22.258Z,17.36
2022-10-21T09:56:26.132Z,17.46
2022-10-21T09:58:36.777Z,17.52
2022-10-21T10:00:53.112Z,17.58
2022-10-21T10:03:06.804Z,17.66
2022-10-21T10:05:36.308Z,17.72
2022-10-21T10:07:38.415Z,17.84
2022-10-21T10:09:46.151Z,17.89
2022-10-21T10:12:12.637Z,17.90
2022-10-21T10:14:32.616Z,17.97
2022-10-21T10:16:34.802Z,18.08
2022-10-21T10:18:36.984Z,18.09
2022-10-21T10:20:38.933Z,18.14
2022-10-21T10:22:43.199Z,18.17
2022-10-21T10:24:45.561Z,18.24
2022-10-21T10:26:48.745Z,18.26
2022-10-21T10:29:00.840Z,18.29
2022-10-21T10:35:05.032Z,18.40
2022-10-21T10:37:22.970Z,18.37
2022-10-21T10:39:30.764Z,18.43
2022-10-21T10:41:38.276Z,18.47
2022-10-21T10:43:47.929Z,18.51
2022-10-21T10:46:10.424Z,18.44
2022-10-21T10:48:23.105Z,18.48
2022-10-21T10:50:44.566Z,18.53
2022-10-21T10:52:46.462Z,18.58
2022-10-21T10:54:49.758Z,18.61
2022-10-21T10:57:04.128Z,18.66
2022-10-21T10:59:14.706Z,18.71
2022-10-21T11:01:41.975Z,18.71
2022-10-21T11:03:55.198Z,18.79
2022-10-21T11:06:07.305Z,18.79
2022-10-21T11:08:29.748Z,18.80
2022-10-21T11:11:03.657Z,18.82
2022-10-21T11:13:12.696Z,18.87
2022-10-21T11:15:16.566Z,18.95
2022-10-21T11:17:21.752Z,18.95
2022-10-21T11:19:36.049Z,19.02
2022-10-21T11:21:56.536Z,19.05
2022-10-21T11:24:19.505Z,19.12
2022-10-21T11:26:40.348Z,19.14
2022-10-21T11:29:10.580Z,19.20
2022-10-21T11:32:09.707Z,19.23
2022-10-21T11:34:37.029Z,19.32
2022-10-21T11:36:57.574Z,19.35
2022-10-21T11:39:29.436Z,19.36
2022-10-21T11:42:06.635Z,19.41
2022-10-21T11:44:48.522Z,19.39
2022-10-21T11:47:12.461Z,19.50
2022-10-21T11:49:38.153Z,19.55
2022-10-21T11:51:43.401Z,19.58
2022-10-21T11:54:03.656Z,19.59
2022-10-21T11:56:13.254Z,19.63
2022-10-21T11:58:18.293Z,19.59
2022-10-21T12:00:27.116Z,19.55
2022-10-21T12:03:00.962Z,19.51
2022-10-21T12:05:21.856Z,19.52
2022-10-21T12:07:40.944Z,19.53
2022-10-21T12:10:00.015Z,19.60
2022-10-21T12:12:09.738Z,19.61
2022-10-21T12:14:43.533Z,19.64
2022-10-21T12:16:47.019Z,19.63
2022-10-21T12:18:56.222Z,19.58
2022-10-21T12:20:59.858Z,19.55
2022-10-21T12:23:06.169Z,19.52
2022-10-21T12:25:16.964Z,19.50
2022-10-21T12:28:10.326Z,19.46
2022-10-21T12:30:15.242Z,19.49
2022-10-21T12:32:31.844Z,19.45
2022-10-21T12:34:34.615Z,19.49
2022-10-21T12:37:26.885Z,19.45
2022-10-21T12:39:34.510Z,19.49
2022-10-21T12:41:38.541Z,19.54
2022-10-21T12:43:41.839Z,19.54
2022-10-21T12:45:44.395Z,19.57
2022-10-21T12:47:46.654Z,19.57
2022-10-21T12:50:23.607Z,19.57
2022-10-21T12:52:25.834Z,19.61
2022-10-21T12:54:31.103Z,19.61
2022-10-21T12:56:51.355Z,19.54
2022-10-21T12:59:03.415Z,19.58
2022-10-21T13:01:27.291Z,19.57
2022-10-21T13:03:51.285Z,19.55
2022-10-21T13:05:53.077Z,19.60
2022-10-21T13:08:23.016Z,19.53
2022-10-21T13:10:26.506Z,19.57
2022-10-21T13:12:28.457Z,19.59
2022-10-21T13:14:45.737Z,19.58
2022-10-21T13:16:48.502Z,19.61
2022-10-21T13:18:50.578Z,19.57
2022-10-21T13:20:58.805Z,19.49
2022-10-21T13:23:31.794Z,19.45
2022-10-21T13:25:36.358Z,19.46
2022-10-21T13:27:39.600Z,19.48
2022-10-21T13:29:45.653Z,19.48
2022-10-21T13:31:48.029Z,19.55
2022-10-21T13:33:55.600Z,19.56
2022-10-21T13:36:04.260Z,19.56
2022-10-21T13:38:22.318Z,19.57
2022-10-21T13:40:30.834Z,19.55
2022-10-21T13:42:40.674Z,19.55
2022-10-21T13:44:53.351Z,19.55
2022-10-21T13:46:55.462Z,19.60
2022-10-21T13:49:01.503Z,19.58
2022-10-21T13:51:16.036Z,19.51
2022-10-21T13:53:18.112Z,19.51
2022-10-21T13:55:23.128Z,19.45
2022-10-21T13:57:32.504Z,19.39
2022-10-21T13:59:35.128Z,19.35
2022-10-21T14:01:52.765Z,19.31
2022-10-21T14:04:14.641Z,19.30
2022-10-21T14:06:26.064Z,19.22
2022-10-21T14:08:33.223Z,19.18
2022-10-21T14:10:36.403Z,19.18
2022-10-21T14:12:46.549Z,19.11
2022-10-21T14:14:49.796Z,19.16
2022-10-21T14:16:55.877Z,19.18
2022-10-21T14:19:01.812Z,19.15
2022-10-21T14:21:05.374Z,19.13
2022-10-21T14:23:15.934Z,19.12
2022-10-21T14:25:19.116Z,19.13
2022-10-21T14:27:46.945Z,19.03
2022-10-21T14:29:49.467Z,19.10
2022-10-21T14:31:51.609Z,19.10
2022-10-21T14:33:54.062Z,19.08
2022-10-21T14:36:05.438Z,19.00
2022-10-21T14:38:29.528Z,18.96
2022-10-21T14:40:37.887Z,18.96
2022-10-21T14:42:41.667Z,18.96
2022-10-21T14:44:46.681Z,18.96
2022-10-21T14:46:51.419Z,18.95
2022-10-21T14:49:03.590Z,18.92
2022-10-21T14:51:13.575Z,18.91
2022-10-21T14:53:21.590Z,18.91
2022-10-21T14:55:30.064Z,18.85
2022-10-21T14:57:40.750Z,18.77
2022-10-21T14:59:43.843Z,18.77
2022-10-21T15:01:46.193Z,18.71
2022-10-21T15:03:50.153Z,18.66
2022-10-21T15:06:10.307Z,18.55
2022-10-21T15:08:21.375Z,18.50
2022-10-21T15:10:23.477Z,18.50
2022-10-21T15:12:26.010Z,18.44
2022-10-21T15:14:31.954Z,18.40
2022-10-21T15:18:42.482Z,18.24
2022-10-21T15:21:05.792Z,18.14
2022-10-21T15:23:20.037Z,18.07
2022-10-21T15:25:24.776Z,18.05
2022-10-21T15:27:36.599Z,17.98
2022-10-21T15:29:45.008Z,17.92
2022-10-21T15:31:47.412Z,17.87
2022-10-21T15:33:51.043Z,17.84
2022-10-21T15:36:09.716Z,17.74
2022-10-21T15:38:11.986Z,17.74
2022-10-21T15:40:14.223Z,17.68
2022-10-21T15:42:18.624Z,17.64
2022-10-21T15:44:31.822Z,17.51
2022-10-21T15:46:35.589Z,17.52
2022-10-21T15:48:37.726Z,17.49
2022-10-21T15:50:43.018Z,17.43
2022-10-21T15:52:45.376Z,17.37
2022-10-21T15:54:47.755Z,17.33
2022-10-21T15:56:52.457Z,17.28
2022-10-21T15:58:54.765Z,17.24
2022-10-21T16:00:56.815Z,17.23
2022-10-21T16:02:59.442Z,17.16
2022-10-21T16:05:01.510Z,17.12
2022-10-21T16:07:09.405Z,17.07
2022-10-21T16:09:16.754Z,17.02
2022-10-21T16:11:34.645Z,16.91
2022-10-21T16:14:10.250Z,16.76
2022-10-21T16:16:20.993Z,16.74
2022-10-21T16:18:22.926Z,16.72
2022-10-21T16:20:29.669Z,16.68
2022-10-21T16:22:31.734Z,16.67
2022-10-21T16:24:33.654Z,16.61
2022-10-21T16:26:40.487Z,16.53
2022-10-21T16:28:43.071Z,16.49
2022-10-21T16:30:45.180Z,16.46
2022-10-21T16:32:47.764Z,16.41
2022-10-21T16:34:49.747Z,16.39
2022-10-21T16:36:51.765Z,16.31
2022-10-21T16:38:54.061Z,16.25
2022-10-21T16:40:56.251Z,16.18
2022-10-21T16:42:58.190Z,16.15
2022-10-21T16:45:00.257Z,16.11
2022-10-21T16:47:03.424Z,16.09
2022-10-21T16:49:13.099Z,16.04
2022-10-21T16:51:15.792Z,16.01
2022-10-21T16:53:17.955Z,15.97
2022-10-21T16:55:20.288Z,15.95
2022-10-21T16:57:22.278Z,15.89
2022-10-21T16:59:24.218Z,15.86
2022-10-21T17:01:26.523Z,15.83
2022-10-21T17:03:28.442Z,15.80
2022-10-21T17:05:30.766Z,15.77
2022-10-21T17:07:34.124Z,15.75
2022-10-21T17:09:36.320Z,15.72
2022-10-21T17:11:40.043Z,15.71
2022-10-21T17:13:43.323Z,15.67
2022-10-21T17:15:45.747Z,15.63
2022-10-21T17:17:47.768Z,15.60
2022-10-21T17:19:50.295Z,15.56
2022-10-21T17:25:45.577Z,15.46
2022-10-21T17:27:47.491Z,15.42
2022-10-21T17:29:49.387Z,15.29
2022-10-21T17:31:51.813Z,15.27
2022-10-21T17:33:57.037Z,15.25
2022-10-21T17:35:59.022Z,15.30
2022-10-21T17:38:01.723Z,15.31
2022-10-21T17:40:03.778Z,15.29
2022-10-21T17:42:06.024Z,15.31
2022-10-21T17:44:12.405Z,15.32
2022-10-21T17:46:18.218Z,15.32
2022-10-21T17:48:20.101Z,15.32
2022-10-21T17:50:26.152Z,15.33
2022-10-21T17:52:28.042Z,15.28
2022-10-21T17:54:31.721Z,15.29
2022-10-21T17:56:36.468Z,15.28
2022-10-21T17:58:38.449Z,15.27
2022-10-21T18:00:43.767Z,15.23
2022-10-21T18:02:46.785Z,15.24
2022-10-21T18:04:48.633Z,15.24
2022-10-21T18:06:50.679Z,15.21
2022-10-21T18:08:53.134Z,15.21
2022-10-21T18:10:57.738Z,15.20
2022-10-21T18:12:59.780Z,15.19
2022-10-21T18:15:02.320Z,15.16
2022-10-21T18:17:04.860Z,15.14
2022-10-21T18:19:06.997Z,15.13
2022-10-21T18:21:12.492Z,15.12
2022-10-21T18:23:14.994Z,15.11
2022-10-21T18:25:17.137Z,15.09
2022-10-21T18:27:19.169Z,15.08
2022-10-21T18:29:22.271Z,15.08
2022-10-21T18:31:26.402Z,15.06
2022-10-21T18:33:28.656Z,15.05
2022-10-21T18:35:30.563Z,15.04
2022-10-21T18:37:34.182Z,15.04
2022-10-21T18:39:36.460Z,15.04
2022-10-21T18:41:38.753Z,15.03
2022-10-21T18:43:40.688Z,15.03
2022-10-21T18:45:46.151Z,15.01
2022-10-21T18:47:49.902Z,15.02
2022-10-21T18:49:51.787Z,15.01
2022-10-21T18:51:53.674Z,15.02
2022-10-21T18:53:55.921Z,14.99
2022-10-21T18:55:57.680Z,15.00
2022-10-21T18:57:59.607Z,15.01
2022-10-21T19:00:01.613Z,14.98
2022-10-21T19:02:04.176Z,14.97
2022-10-21T19:04:06.779Z,14.99
2022-10-21T19:06:32.010Z,14.90
2022-10-21T19:08:33.897Z,14.96
2022-10-21T19:10:35.738Z,14.91
2022-10-21T19:12:37.640Z,14.92
2022-10-21T19:14:39.376Z,14.84
2022-10-21T19:16:42.268Z,14.89
2022-10-21T19:18:44.038Z,14.85
2022-10-21T19:20:46.039Z,14.84
2022-10-21T19:22:47.955Z,14.77
2022-10-21T19:24:49.794Z,14.83
2022-10-21T19:26:56.598Z,14.79
2022-10-21T19:29:09.681Z,14.78
2022-10-21T19:31:11.976Z,14.81
2022-10-21T19:33:13.809Z,14.76
2022-10-21T19:35:15.681Z,14.75
2022-10-21T19:37:17.573Z,14.74
2022-10-21T19:39:20.081Z,14.76
2022-10-21T19:41:23.157Z,14.73
2022-10-21T19:43:26.021Z,14.72
2022-10-21T19:45:28.131Z,14.72
2022-10-21T19:47:31.366Z,14.70
2022-10-21T19:49:34.024Z,14.69
2022-10-21T19:51:37.254Z,14.67
2022-10-21T19:53:40.122Z,14.64
2022-10-21T19:55:42.069Z,14.61
2022-10-21T19:57:43.927Z,14.59
2022-10-21T19:59:45.808Z,14.50
2022-10-21T20:01:47.843Z,14.48
2022-10-21T20:04:32.560Z,14.37
2022-10-21T20:06:37.985Z,14.37
2022-10-21T20:08:40.211Z,14.38
2022-10-21T20:10:42.105Z,14.33
2022-10-21T20:12:43.939Z,14.19
2022-10-21T20:14:45.801Z,14.25
2022-10-21T20:16:49.093Z,14.28
2022-10-21T20:18:51.294Z,14.30
2022-10-21T20:20:54.467Z,14.26
2022-10-21T20:22:56.550Z,14.33
2022-10-21T20:24:58.416Z,14.34
2022-10-21T20:27:02.281Z,14.39
2022-10-21T20:29:04.385Z,14.34
2022-10-21T20:31:10.407Z,14.24
2022-10-21T20:33:12.682Z,14.27
2022-10-21T20:35:14.628Z,14.27
2022-10-21T20:37:16.754Z,14.26
2022-10-21T20:39:18.711Z,14.29
2022-10-21T20:41:23.671Z,14.28
2022-10-21T20:43:28.485Z,14.32
2022-10-21T20:45:30.514Z,14.32
2022-10-21T20:47:32.349Z,14.24
2022-10-21T20:49:34.307Z,14.22
2022-10-21T20:51:38.119Z,14.19
2022-10-21T20:53:53.526Z,14.24
2022-10-21T20:55:56.309Z,14.28
2022-10-21T20:57:58.364Z,14.30
2022-10-21T21:00:00.495Z,14.31
2022-10-21T21:02:02.334Z,14.28
2022-10-21T21:04:08.481Z,14.25
2022-10-21T21:06:12.329Z,14.22
2022-10-21T21:08:14.192Z,14.27
2022-10-21T21:10:16.252Z,14.26
2022-10-21T21:12:18.403Z,14.25
2022-10-21T21:14:20.417Z,14.25
2022-10-21T21:16:25.391Z,14.23
2022-10-21T21:18:27.622Z,14.21
2022-10-21T21:20:29.729Z,14.11
2022-10-21T21:22:31.643Z,14.14
2022-10-21T21:24:33.655Z,14.03
2022-10-21T21:26:37.948Z,14.04
2022-10-21T21:29:42.257Z,13.93
2022-10-21T21:31:44.497Z,13.96
2022-10-21T21:33:46.345Z,13.91
2022-10-21T21:35:48.626Z,13.94
2022-10-21T21:37:50.739Z,13.88
2022-10-21T21:39:52.732Z,13.89
2022-10-21T21:41:54.571Z,13.88
2022-10-21T21:44:22.106Z,13.84
2022-10-21T21:46:25.248Z,13.98
2022-10-21T21:48:27.946Z,14.00
2022-10-21T21:50:29.877Z,14.02
2022-10-21T21:52:32.383Z,14.01
2022-10-21T21:54:34.220Z,14.01
2022-10-21T21:56:36.532Z,13.97
2022-10-21T21:58:39.595Z,13.97
2022-10-21T22:00:41.618Z,13.95
2022-10-21T22:02:44.162Z,13.94
2022-10-21T22:04:46.285Z,13.92
2022-10-21T22:06:48.392Z,13.89
2022-10-21T22:08:51.428Z,13.91
2022-10-21T22:10:53.536Z,13.90
2022-10-21T22:12:56.750Z,13.88
2022-10-21T22:14:58.849Z,13.89
2022-10-21T22:17:00.968Z,13.85
2022-10-21T22:19:02.940Z,13.80
2022-10-21T22:21:08.373Z,13.80
2022-10-21T22:23:10.234Z,13.78
2022-10-21T22:25:14.569Z,13.76
2022-10-21T22:27:16.561Z,13.81
2022-10-21T22:29:18.771Z,13.84
2022-10-21T22:31:28.947Z,13.87
2022-10-21T22:33:33.259Z,13.81
2022-10-21T22:35:38.828Z,13.81
2022-10-21T22:37:41.071Z,13.85
2022-10-21T22:39:43.376Z,13.87
2022-10-21T22:41:45.292Z,13.84
2022-10-21T22:43:47.375Z,13.85
2022-10-21T22:45:49.255Z,13.83
2022-10-21T22:47:51.085Z,13.82
2022-10-21T22:49:53.144Z,13.81
2022-10-21T22:51:55.142Z,13.82
2022-10-21T22:53:57.129Z,13.81
2022-10-21T22:55:59.416Z,13.75
2022-10-21T22:58:01.522Z,13.76
2022-10-21T23:00:04.380Z,13.72
2022-10-21T23:02:06.551Z,13.65
2022-10-21T23:04:10.051Z,13.62
2022-10-21T23:06:11.903Z,13.59
2022-10-21T23:08:18.283Z,13.53
2022-10-21T23:10:20.232Z,13.54
2022-10-21T23:12:22.114Z,13.54
2022-10-21T23:14:24.126Z,13.56
2022-10-21T23:16:26.091Z,13.50
2022-10-21T23:18:28.425Z,13.45
2022-10-21T23:20:30.452Z,13.40
2022-10-21T23:22:32.436Z,13.37
2022-10-21T23:24:34.276Z,13.35
2022-10-21T23:26:51.266Z,13.26
2022-10-21T23:28:53.277Z,13.34
2022-10-21T23:30:55.456Z,13.32
2022-10-21T23:32:57.377Z,13.31
2022-10-21T23:34:59.412Z,13.23
2022-10-21T23:37:01.333Z,13.20
2022-10-21T23:39:04.001Z,13.19
2022-10-21T23:41:05.886Z,13.18
2022-10-21T23:43:08.039Z,13.16
2022-10-21T23:45:11.538Z,13.12
2022-10-21T23:47:13.520Z,13.06
2022-10-21T23:49:15.547Z,13.07
2022-10-21T23:51:17.650Z,13.07
2022-10-21T23:53:19.645Z,13.01
2022-10-21T23:55:21.712Z,12.97
2022-10-21T23:57:23.911Z,12.99
2022-10-21T23:59:25.766Z,12.99
